Catania-Fontanarossa Airport

LICC · 西西里岛, 意大利

罗盘
风向 的 风向 的 风向 到 风向 090° Catania-Fontanarossa Airport 8/26
风: 11 kt, 4 beaufort

11 kt

1 kt
改变
0 1.000 2.000 3.000 4.000 5.000
FEW 3.000 ft
METAR LICC 041050Z 09011KT 060V120 9999 FEW030 25/16 Q1020

METAR Catania-Fontanarossa Airport - LICC/CTA

Catania-Fontanarossa Airport是Catania,意大利中的大型机场。 该机场有一条跑道: 8/26. 该领域的国际民航组织标志是LICC 它的国际航空运输协会代码是CTA.

这份报告是针对2022年10月4日 12:50, 当地时间在Catania-Fontanarossa Airport进行的。

机场观察

风向为090°,速度为11 kt。 风向在060°和120°之间变化。

可见度为10 km 或者更多。

有几云在3.000 ft的高度。 没有观察到天花板。

温度和风寒是25 °C。 露点为16 °C,相对湿度为57%。 海平面上的气压为1020 hPa (QNH)。

白天

今天,太阳从06:57升起,在18:39降落。 这适用于Catania-Fontanarossa Airport,世界夏令时可能有所不同。 当地时间与世界标准时间之间的时差为+2 小时。 夏令时目前正在进行中。

公司介绍

在这个机场,你可以找到跳伞中心。 本场上唯一已知的公司是Sicily。

体会

到Vliegles.nl去找飞行课程,跳伞和其他飞行体验。 浏览页面,了解Catania-Fontanarossa Airport附近所有可用的活动。 你也可以使用搜索功能来寻找你所在地附近的特定飞行课程、跳伞或其他飞行体验。

跑道

Id 标题 侧风 逆风 侧风 %
8/26 084°-264° 1 kt 11 kt 10 %

逆风成分最大的方向会被突出显示,并用于横风计算。 这并不一定意味着这个方向在使用。

乌云

3.000 ft FEW 几云

温度 & 天气

温度 25 °C
露点 16 °C
相对湿度 57%
Kp-index 2 (0-9)

白天

日出
06:57
中午
12:48
日落
18:39 (5h 27m)

小工具

你想在你的网站上有一个关于Catania-Fontanarossa Airport的当前航空天气(METAR)的小部件吗?

</> 显示HTML代码

我们和第三方通过cookies跟踪您在我们网站上的上网行为。如果您继续,我们认为您同意我们的cookie政策。 了解更多